Terminal Aerodrome Forecast
Issued by NWS Upton, NY

Home | Current Version | Previous Version | Text Only | Print | Product List | Glossary On
Versions: 1 2 3 4 5 6 7 8 9 10 11 12 13 14 15 16 17 18 19 20 21 22 23 24 25 26 27 28 29 30 31 32 33
327
FTUS41 KOKX 192032 AAB
TAFLGA
TAF AMD
KLGA 192032Z 1921/2018 27010KT P6SM SCT050 BKN250
     FM200200 27007KT P6SM FEW250
     FM200900 32008KT P6SM FEW250=

USA.gov is the U.S. government's official web portal to all federal, state and local government web resources and services.